Terminal Aerodrome Forecast
Issued by NWS

Home | Current Version | Previous Version | Graphics & Text | Print | Product List | Glossary On
Versions: 1 2 3 4 5 6 7 8 9 10 11 12 13 14 15 16 17 18 19 20 21 22 23 24 25 26 27 28 29 30 31 32 33
000
FTUS43 KLOT 282222 AAD
TAFMDW
TAF AMD
KMDW 282222Z 2822/2918 16010KT P6SM SCT040 BKN180
     FM290000 18008KT P6SM SCT050 SCT100 BKN150
     FM290500 18007KT P6SM VCSH BKN070 BKN100
     FM291000 26009KT P6SM VCTS SCT020 OVC040CB PROB30 2910/2913 3SM
      TSRA
     FM291300 29011G16KT P6SM SCT040 BKN140=

USA.gov is the U.S. government's official web portal to all federal, state and local government web resources and services.